sensor_id;sensor_type;location;lat;lon;timestamp;pressure;altitude;pressure_sealevel;temperature;humidity
58056;BME280;53159;55.152;36.614;2022-07-29T00:00:51;99759.84;;;14.23;100.00
58056;BME280;53159;55.152;36.614;2022-07-29T00:03:18;99758.09;;;14.25;100.00
58056;BME280;53159;55.152;36.614;2022-07-29T00:05:45;99759.84;;;14.25;100.00
58056;BME280;53159;55.152;36.614;2022-07-29T00:08:14;99759.78;;;14.20;100.00
58056;BME280;53159;55.152;36.614;2022-07-29T00:10:42;99766.72;;;14.16;100.00
58056;BME280;53159;55.152;36.614;2022-07-29T00:13:09;99767.53;;;14.12;100.00
58056;BME280;53159;55.152;36.614;2022-07-29T00:15:37;99763.16;;;14.11;100.00
58056;BME280;53159;55.152;36.614;2022-07-29T00:18:03;99758.72;;;14.04;100.00
58056;BME280;53159;55.152;36.614;2022-07-29T00:20:31;99766.56;;;14.04;100.00
58056;BME280;53159;55.152;36.614;2022-07-29T00:22:58;99760.41;;;13.99;100.00
58056;BME280;53159;55.152;36.614;2022-07-29T00:25:25;99771.72;;;13.98;100.00
58056;BME280;53159;55.152;36.614;2022-07-29T00:27:52;99772.56;;;13.97;100.00
58056;BME280;53159;55.152;36.614;2022-07-29T00:30:20;99771.69;;;13.95;100.00
58056;BME280;53159;55.152;36.614;2022-07-29T00:32:46;99769.88;;;13.91;100.00
58056;BME280;53159;55.152;36.614;2022-07-29T00:35:14;99768.09;;;13.85;100.00
58056;BME280;53159;55.152;36.614;2022-07-29T00:38:00;99766.31;;;13.84;100.00
58056;BME280;53159;55.152;36.614;2022-07-29T00:40:26;99768.00;;;13.79;100.00
58056;BME280;53159;55.152;36.614;2022-07-29T00:42:53;99758.34;;;13.75;100.00
58056;BME280;53159;55.152;36.614;2022-07-29T00:45:22;99758.34;;;13.72;100.00
58056;BME280;53159;55.152;36.614;2022-07-29T00:47:49;99762.63;;;13.68;100.00
58056;BME280;53159;55.152;36.614;2022-07-29T00:50:16;99759.94;;;13.63;100.00
58056;BME280;53159;55.152;36.614;2022-07-29T00:52:45;99762.53;;;13.60;100.00
58056;BME280;53159;55.152;36.614;2022-07-29T00:55:14;99764.22;;;13.55;100.00
58056;BME280;53159;55.152;36.614;2022-07-29T00:57:42;99763.28;;;13.51;100.00
58056;BME280;53159;55.152;36.614;2022-07-29T01:00:12;99764.06;;;13.46;100.00
58056;BME280;53159;55.152;36.614;2022-07-29T01:02:40;99763.16;;;13.44;100.00
58056;BME280;53159;55.152;36.614;2022-07-29T01:05:08;99765.66;;;13.37;100.00
58056;BME280;53159;55.152;36.614;2022-07-29T01:07:36;99765.53;;;13.30;100.00
58056;BME280;53159;55.152;36.614;2022-07-29T01:10:06;99769.69;;;13.18;100.00
58056;BME280;53159;55.152;36.614;2022-07-29T01:12:35;99765.25;;;13.11;100.00
58056;BME280;53159;55.152;36.614;2022-07-29T01:15:06;99771.31;;;13.10;100.00
58056;BME280;53159;55.152;36.614;2022-07-29T01:17:46;99774.75;;;13.09;100.00
58056;BME280;53159;55.152;36.614;2022-07-29T01:20:26;99766.00;;;13.04;100.00
58056;BME280;53159;55.152;36.614;2022-07-29T01:23:11;99773.03;;;13.10;100.00
58056;BME280;53159;55.152;36.614;2022-07-29T01:26:11;99774.72;;;13.06;100.00
58056;BME280;53159;55.152;36.614;2022-07-29T01:31:42;99775.47;;;13.00;100.00
58056;BME280;53159;55.152;36.614;2022-07-29T01:34:17;99781.53;;;12.98;100.00
58056;BME280;53159;55.152;36.614;2022-07-29T01:36:54;99784.09;;;12.95;100.00
58056;BME280;53159;55.152;36.614;2022-07-29T01:39:31;99782.25;;;12.90;100.00
58056;BME280;53159;55.152;36.614;2022-07-29T01:44:50;99787.31;;;12.80;100.00
58056;BME280;53159;55.152;36.614;2022-07-29T01:47:25;99784.66;;;12.78;100.00
58056;BME280;53159;55.152;36.614;2022-07-29T01:49:54;99786.41;;;12.79;100.00
58056;BME280;53159;55.152;36.614;2022-07-29T01:52:31;99789.03;;;12.81;100.00
58056;BME280;53159;55.152;36.614;2022-07-29T01:55:07;99786.31;;;12.73;100.00
58056;BME280;53159;55.152;36.614;2022-07-29T01:57:38;99783.78;;;12.76;100.00
58056;BME280;53159;55.152;36.614;2022-07-29T02:00:07;99780.28;;;12.76;100.00
58056;BME280;53159;55.152;36.614;2022-07-29T02:02:43;99781.13;;;12.74;100.00
58056;BME280;53159;55.152;36.614;2022-07-29T02:05:14;99783.69;;;12.73;100.00
58056;BME280;53159;55.152;36.614;2022-07-29T02:07:43;99784.63;;;12.75;100.00
58056;BME280;53159;55.152;36.614;2022-07-29T02:10:11;99781.94;;;12.72;100.00
58056;BME280;53159;55.152;36.614;2022-07-29T02:12:42;99784.56;;;12.72;100.00
58056;BME280;53159;55.152;36.614;2022-07-29T02:15:32;99786.41;;;12.79;100.00
58056;BME280;53159;55.152;36.614;2022-07-29T02:18:02;99775.31;;;12.89;100.00
58056;BME280;53159;55.152;36.614;2022-07-29T02:20:32;99779.97;;;13.09;100.00
58056;BME280;53159;55.152;36.614;2022-07-29T02:23:01;99778.63;;;13.33;100.00
58056;BME280;53159;55.152;36.614;2022-07-29T02:25:30;99787.72;;;13.60;100.00
58056;BME280;53159;55.152;36.614;2022-07-29T02:27:59;99783.75;;;13.88;100.00
58056;BME280;53159;55.152;36.614;2022-07-29T02:30:28;99787.66;;;14.23;100.00
58056;BME280;53159;55.152;36.614;2022-07-29T02:32:57;99787.13;;;14.53;100.00
58056;BME280;53159;55.152;36.614;2022-07-29T02:35:25;99785.75;;;14.88;100.00
58056;BME280;53159;55.152;36.614;2022-07-29T02:37:52;99781.66;;;15.18;100.00
58056;BME280;53159;55.152;36.614;2022-07-29T02:40:42;99777.50;;;15.47;100.00
58056;BME280;53159;55.152;36.614;2022-07-29T02:43:10;99785.53;;;15.80;100.00
58056;BME280;53159;55.152;36.614;2022-07-29T02:45:37;99791.84;;;16.10;100.00
58056;BME280;53159;55.152;36.614;2022-07-29T02:48:13;99784.91;;;16.35;100.00
58056;BME280;53159;55.152;36.614;2022-07-29T02:50:49;99784.97;;;16.68;100.00
58056;BME280;53159;55.152;36.614;2022-07-29T02:53:21;99792.91;;;16.94;100.00
58056;BME280;53159;55.152;36.614;2022-07-29T02:56:13;99791.16;;;17.35;100.00
58056;BME280;53159;55.152;36.614;2022-07-29T02:58:44;99785.00;;;17.59;97.34
58056;BME280;53159;55.152;36.614;2022-07-29T03:01:24;99784.94;;;17.84;95.59
58056;BME280;53159;55.152;36.614;2022-07-29T03:03:55;99791.00;;;18.03;94.48
58056;BME280;53159;55.152;36.614;2022-07-29T03:06:25;99786.50;;;18.34;92.98
58056;BME280;53159;55.152;36.614;2022-07-29T03:08:54;99785.50;;;18.56;91.21
58056;BME280;53159;55.152;36.614;2022-07-29T03:11:22;99780.91;;;18.92;89.85
58056;BME280;53159;55.152;36.614;2022-07-29T03:13:52;99777.22;;;19.13;88.04
58056;BME280;53159;55.152;36.614;2022-07-29T03:16:19;99782.25;;;19.41;87.46
58056;BME280;53159;55.152;36.614;2022-07-29T03:18:47;99781.97;;;19.70;84.10
58056;BME280;53159;55.152;36.614;2022-07-29T03:21:15;99782.47;;;20.03;82.72
58056;BME280;53159;55.152;36.614;2022-07-29T03:23:46;99786.47;;;20.34;80.05
58056;BME280;53159;55.152;36.614;2022-07-29T03:26:14;99789.72;;;20.53;79.58
58056;BME280;53159;55.152;36.614;2022-07-29T03:28:41;99788.38;;;20.88;78.21
58056;BME280;53159;55.152;36.614;2022-07-29T03:31:09;99787.88;;;21.17;76.31
58056;BME280;53159;55.152;36.614;2022-07-29T03:33:35;99794.47;;;21.45;73.78
58056;BME280;53159;55.152;36.614;2022-07-29T03:36:03;99791.34;;;21.72;72.84
58056;BME280;53159;55.152;36.614;2022-07-29T03:38:33;99790.16;;;21.87;70.68
58056;BME280;53159;55.152;36.614;2022-07-29T03:41:08;99792.28;;;22.12;68.01
58056;BME280;53159;55.152;36.614;2022-07-29T03:43:39;99790.00;;;22.39;68.00
58056;BME280;53159;55.152;36.614;2022-07-29T03:46:09;99799.09;;;22.66;66.76
58056;BME280;53159;55.152;36.614;2022-07-29T03:48:41;99798.56;;;22.90;65.34
58056;BME280;53159;55.152;36.614;2022-07-29T03:51:10;99802.25;;;23.20;63.63
58056;BME280;53159;55.152;36.614;2022-07-29T03:53:37;99806.44;;;23.29;62.46
58056;BME280;53159;55.152;36.614;2022-07-29T03:56:05;99797.06;;;23.50;61.17
58056;BME280;53159;55.152;36.614;2022-07-29T03:58:33;99802.91;;;23.63;60.98
58056;BME280;53159;55.152;36.614;2022-07-29T04:01:00;99800.94;;;23.71;61.15
58056;BME280;53159;55.152;36.614;2022-07-29T04:03:27;99808.94;;;23.68;62.04
58056;BME280;53159;55.152;36.614;2022-07-29T04:06:04;99802.94;;;23.94;61.05
58056;BME280;53159;55.152;36.614;2022-07-29T04:08:33;99806.41;;;24.28;60.03
58056;BME280;53159;55.152;36.614;2022-07-29T04:11:02;99797.63;;;24.56;59.28
58056;BME280;53159;55.152;36.614;2022-07-29T04:13:30;99812.53;;;24.88;59.19
58056;BME280;53159;55.152;36.614;2022-07-29T04:15:58;99805.78;;;25.06;56.77
58056;BME280;53159;55.152;36.614;2022-07-29T04:18:25;99799.72;;;25.28;55.47
58056;BME280;53159;55.152;36.614;2022-07-29T04:20:51;99801.41;;;25.31;54.78
58056;BME280;53159;55.152;36.614;2022-07-29T04:23:19;99807.72;;;25.55;54.65
58056;BME280;53159;55.152;36.614;2022-07-29T04:25:46;99807.41;;;25.64;53.53
58056;BME280;53159;55.152;36.614;2022-07-29T04:28:12;99803.63;;;25.95;51.15
58056;BME280;53159;55.152;36.614;2022-07-29T04:30:40;99811.81;;;26.14;52.82
58056;BME280;53159;55.152;36.614;2022-07-29T04:33:07;99802.50;;;26.50;51.88
58056;BME280;53159;55.152;36.614;2022-07-29T04:35:36;99808.91;;;26.90;50.99
58056;BME280;53159;55.152;36.614;2022-07-29T04:38:04;99801.00;;;27.31;49.91
58056;BME280;53159;55.152;36.614;2022-07-29T04:40:31;99811.94;;;27.46;48.45
58056;BME280;53159;55.152;36.614;2022-07-29T04:43:01;99802.16;;;27.46;48.74
58056;BME280;53159;55.152;36.614;2022-07-29T04:45:29;99806.63;;;27.66;47.40
58056;BME280;53159;55.152;36.614;2022-07-29T04:47:55;99806.06;;;27.79;46.93
58056;BME280;53159;55.152;36.614;2022-07-29T04:50:24;99805.97;;;28.01;46.79
58056;BME280;53159;55.152;36.614;2022-07-29T04:52:51;99809.94;;;27.92;46.33
58056;BME280;53159;55.152;36.614;2022-07-29T04:55:19;99807.19;;;28.14;46.32
58056;BME280;53159;55.152;36.614;2022-07-29T04:57:46;99804.44;;;28.35;45.48
58056;BME280;53159;55.152;36.614;2022-07-29T05:00:13;99802.41;;;28.59;45.87
58056;BME280;53159;55.152;36.614;2022-07-29T05:02:40;99801.25;;;28.84;45.50
58056;BME280;53159;55.152;36.614;2022-07-29T05:05:07;99803.78;;;28.87;44.61
58056;BME280;53159;55.152;36.614;2022-07-29T05:07:35;99802.94;;;29.04;44.88
58056;BME280;53159;55.152;36.614;2022-07-29T05:10:02;99804.13;;;28.99;43.51
58056;BME280;53159;55.152;36.614;2022-07-29T05:12:30;99800.34;;;29.03;44.22
58056;BME280;53159;55.152;36.614;2022-07-29T05:14:57;99806.50;;;28.86;44.57
58056;BME280;53159;55.152;36.614;2022-07-29T05:17:24;99797.53;;;28.50;45.15
58056;BME280;53159;55.152;36.614;2022-07-29T05:19:52;99796.34;;;28.18;45.79
58056;BME280;53159;55.152;36.614;2022-07-29T05:22:22;99787.91;;;28.08;46.75
58056;BME280;53159;55.152;36.614;2022-07-29T05:24:50;99798.53;;;27.89;45.83
58056;BME280;53159;55.152;36.614;2022-07-29T05:27:17;99796.88;;;27.65;46.77
58056;BME280;53159;55.152;36.614;2022-07-29T05:29:44;99795.75;;;27.08;47.25
58056;BME280;53159;55.152;36.614;2022-07-29T05:32:12;99795.06;;;26.82;48.73
58056;BME280;53159;55.152;36.614;2022-07-29T05:34:40;99797.78;;;26.57;49.59
58056;BME280;53159;55.152;36.614;2022-07-29T05:37:08;99796.72;;;26.15;49.97
58056;BME280;53159;55.152;36.614;2022-07-29T05:39:35;99801.22;;;25.89;50.67
58056;BME280;53159;55.152;36.614;2022-07-29T05:42:03;99797.13;;;25.79;51.39
58056;BME280;53159;55.152;36.614;2022-07-29T05:44:39;99801.31;;;25.34;52.29
58056;BME280;53159;55.152;36.614;2022-07-29T05:47:07;99802.22;;;25.07;51.18
58056;BME280;53159;55.152;36.614;2022-07-29T05:49:34;99807.53;;;25.07;51.46
58056;BME280;53159;55.152;36.614;2022-07-29T05:52:01;99796.16;;;24.75;51.64
58056;BME280;53159;55.152;36.614;2022-07-29T05:54:31;99796.78;;;24.54;52.69
58056;BME280;53159;55.152;36.614;2022-07-29T05:56:58;99797.69;;;24.54;53.73
58056;BME280;53159;55.152;36.614;2022-07-29T05:59:26;99794.25;;;24.21;55.28
58056;BME280;53159;55.152;36.614;2022-07-29T06:01:54;99801.44;;;23.84;54.23
58056;BME280;53159;55.152;36.614;2022-07-29T06:04:22;99799.34;;;23.64;56.69
58056;BME280;53159;55.152;36.614;2022-07-29T06:06:49;99799.19;;;23.70;55.42
58056;BME280;53159;55.152;36.614;2022-07-29T06:09:17;99800.75;;;23.77;56.29
58056;BME280;53159;55.152;36.614;2022-07-29T06:11:44;99801.28;;;23.59;56.65
58056;BME280;53159;55.152;36.614;2022-07-29T06:14:10;99796.03;;;23.56;56.18
58056;BME280;53159;55.152;36.614;2022-07-29T06:16:37;99790.53;;;23.30;55.26
58056;BME280;53159;55.152;36.614;2022-07-29T06:19:04;99797.41;;;23.00;55.76
58056;BME280;53159;55.152;36.614;2022-07-29T06:21:31;99793.25;;;22.90;56.59
58056;BME280;53159;55.152;36.614;2022-07-29T06:23:59;99800.34;;;22.88;57.96
58056;BME280;53159;55.152;36.614;2022-07-29T06:26:26;99795.25;;;22.80;59.84
58056;BME280;53159;55.152;36.614;2022-07-29T06:28:53;99795.31;;;22.78;59.90
58056;BME280;53159;55.152;36.614;2022-07-29T06:31:22;99790.31;;;22.64;60.55
58056;BME280;53159;55.152;36.614;2022-07-29T06:33:48;99790.16;;;22.70;60.14
58056;BME280;53159;55.152;36.614;2022-07-29T06:36:16;99783.03;;;22.74;59.92
58056;BME280;53159;55.152;36.614;2022-07-29T06:38:43;99779.44;;;22.77;59.32
58056;BME280;53159;55.152;36.614;2022-07-29T06:41:10;99789.13;;;22.78;57.83
58056;BME280;53159;55.152;36.614;2022-07-29T06:43:43;99786.63;;;22.72;58.75
58056;BME280;53159;55.152;36.614;2022-07-29T06:46:14;99781.03;;;22.46;57.33
58056;BME280;53159;55.152;36.614;2022-07-29T06:48:45;99794.94;;;22.54;58.65
58056;BME280;53159;55.152;36.614;2022-07-29T06:51:17;99785.22;;;22.57;58.71
58056;BME280;53159;55.152;36.614;2022-07-29T06:53:45;99791.47;;;22.52;60.18
58056;BME280;53159;55.152;36.614;2022-07-29T06:56:11;99791.41;;;22.56;59.26
58056;BME280;53159;55.152;36.614;2022-07-29T06:58:40;99789.50;;;22.61;60.12
58056;BME280;53159;55.152;36.614;2022-07-29T07:01:10;99787.72;;;22.63;58.33
58056;BME280;53159;55.152;36.614;2022-07-29T07:03:37;99784.97;;;22.67;58.24
58056;BME280;53159;55.152;36.614;2022-07-29T07:06:42;99784.16;;;22.64;55.42
58056;BME280;53159;55.152;36.614;2022-07-29T07:09:10;99789.34;;;22.68;56.68
58056;BME280;53159;55.152;36.614;2022-07-29T07:11:38;99797.44;;;22.62;57.61
58056;BME280;53159;55.152;36.614;2022-07-29T07:14:06;99790.44;;;22.60;56.52
58056;BME280;53159;55.152;36.614;2022-07-29T07:16:33;99789.50;;;22.62;55.88
58056;BME280;53159;55.152;36.614;2022-07-29T07:19:01;99786.72;;;22.67;55.81
58056;BME280;53159;55.152;36.614;2022-07-29T07:21:28;99787.28;;;22.44;53.42
58056;BME280;53159;55.152;36.614;2022-07-29T07:23:54;99790.97;;;22.33;53.57
58056;BME280;53159;55.152;36.614;2022-07-29T07:26:21;99791.53;;;22.07;56.19
58056;BME280;53159;55.152;36.614;2022-07-29T07:28:47;99792.63;;;21.97;57.66
58056;BME280;53159;55.152;36.614;2022-07-29T07:31:14;99797.59;;;22.12;58.77
58056;BME280;53159;55.152;36.614;2022-07-29T07:33:40;99797.75;;;22.04;58.85
58056;BME280;53159;55.152;36.614;2022-07-29T07:36:08;99793.91;;;22.19;58.28
58056;BME280;53159;55.152;36.614;2022-07-29T07:38:36;99786.56;;;22.34;58.81
58056;BME280;53159;55.152;36.614;2022-07-29T07:41:02;99777.72;;;22.35;56.85
58056;BME280;53159;55.152;36.614;2022-07-29T07:43:29;99786.34;;;22.46;56.92
58056;BME280;53159;55.152;36.614;2022-07-29T07:45:55;99789.91;;;22.44;56.45
58056;BME280;53159;55.152;36.614;2022-07-29T07:48:22;99801.25;;;22.49;57.68
58056;BME280;53159;55.152;36.614;2022-07-29T07:50:50;99795.66;;;22.63;57.55
58056;BME280;53159;55.152;36.614;2022-07-29T07:53:17;99800.75;;;22.70;57.14
58056;BME280;53159;55.152;36.614;2022-07-29T07:55:44;99797.25;;;22.70;56.83
58056;BME280;53159;55.152;36.614;2022-07-29T07:58:11;99799.16;;;22.63;55.56
58056;BME280;53159;55.152;36.614;2022-07-29T08:00:37;99795.94;;;22.50;54.09
58056;BME280;53159;55.152;36.614;2022-07-29T08:03:06;99795.06;;;22.50;55.47
58056;BME280;53159;55.152;36.614;2022-07-29T08:05:33;99802.25;;;22.43;54.41
58056;BME280;53159;55.152;36.614;2022-07-29T08:08:01;99793.25;;;22.52;54.97
58056;BME280;53159;55.152;36.614;2022-07-29T08:10:27;99793.22;;;22.53;56.88
58056;BME280;53159;55.152;36.614;2022-07-29T08:13:13;99789.59;;;22.58;56.12
58056;BME280;53159;55.152;36.614;2022-07-29T08:15:41;99803.84;;;22.50;56.14
58056;BME280;53159;55.152;36.614;2022-07-29T08:18:15;99799.44;;;22.51;54.57
58056;BME280;53159;55.152;36.614;2022-07-29T08:20:42;99788.16;;;22.43;54.55
58056;BME280;53159;55.152;36.614;2022-07-29T08:23:10;99797.81;;;22.45;54.50
58056;BME280;53159;55.152;36.614;2022-07-29T08:25:37;99792.56;;;22.42;53.18
58056;BME280;53159;55.152;36.614;2022-07-29T08:28:06;99794.69;;;22.25;50.80
58056;BME280;53159;55.152;36.614;2022-07-29T08:30:35;99793.91;;;22.19;52.81
58056;BME280;53159;55.152;36.614;2022-07-29T08:33:01;99799.13;;;22.24;52.55
58056;BME280;53159;55.152;36.614;2022-07-29T08:35:29;99790.13;;;22.33;52.88
58056;BME280;53159;55.152;36.614;2022-07-29T08:37:56;99791.00;;;22.32;52.04
58056;BME280;53159;55.152;36.614;2022-07-29T08:40:25;99788.16;;;22.43;52.32
58056;BME280;53159;55.152;36.614;2022-07-29T08:42:52;99794.47;;;22.35;50.62
58056;BME280;53159;55.152;36.614;2022-07-29T08:45:25;99796.25;;;22.33;51.13
58056;BME280;53159;55.152;36.614;2022-07-29T08:47:57;99792.22;;;22.17;50.23
58056;BME280;53159;55.152;36.614;2022-07-29T08:50:26;99791.06;;;22.30;51.23
58056;BME280;53159;55.152;36.614;2022-07-29T08:52:54;99790.91;;;22.38;51.81
58056;BME280;53159;55.152;36.614;2022-07-29T08:55:21;99787.50;;;22.30;52.31
58056;BME280;53159;55.152;36.614;2022-07-29T08:57:49;99784.06;;;22.26;51.88
58056;BME280;53159;55.152;36.614;2022-07-29T09:00:18;99777.84;;;22.30;51.39
58056;BME280;53159;55.152;36.614;2022-07-29T09:02:47;99792.16;;;22.18;49.95
58056;BME280;53159;55.152;36.614;2022-07-29T09:05:17;99792.13;;;22.20;49.83
58056;BME280;53159;55.152;36.614;2022-07-29T09:07:44;99793.19;;;22.13;51.09
58056;BME280;53159;55.152;36.614;2022-07-29T09:10:15;99783.47;;;22.13;51.05
58056;BME280;53159;55.152;36.614;2022-07-29T09:12:43;99782.06;;;21.97;50.38
58056;BME280;53159;55.152;36.614;2022-07-29T09:15:10;99790.56;;;22.11;53.07
58056;BME280;53159;55.152;36.614;2022-07-29T09:17:41;99785.00;;;22.25;52.53
58056;BME280;53159;55.152;36.614;2022-07-29T09:20:16;99785.53;;;22.41;52.59
58056;BME280;53159;55.152;36.614;2022-07-29T09:22:44;99775.09;;;22.33;50.80
58056;BME280;53159;55.152;36.614;2022-07-29T09:25:36;99782.69;;;22.50;53.00
58056;BME280;53159;55.152;36.614;2022-07-29T09:28:12;99784.34;;;22.56;53.33
58056;BME280;53159;55.152;36.614;2022-07-29T09:30:54;99785.44;;;22.47;51.30
58056;BME280;53159;55.152;36.614;2022-07-29T09:33:23;99792.56;;;22.42;53.07
58056;BME280;53159;55.152;36.614;2022-07-29T09:36:19;99783.97;;;22.31;53.22
58056;BME280;53159;55.152;36.614;2022-07-29T09:39:00;99782.19;;;22.33;52.03
58056;BME280;53159;55.152;36.614;2022-07-29T09:41:28;99781.25;;;22.35;51.93
58056;BME280;53159;55.152;36.614;2022-07-29T09:43:58;99789.31;;;22.29;51.36
58056;BME280;53159;55.152;36.614;2022-07-29T09:46:25;99794.63;;;22.28;52.81
58056;BME280;53159;55.152;36.614;2022-07-29T09:49:12;99796.16;;;22.40;53.25
58056;BME280;53159;55.152;36.614;2022-07-29T09:51:39;99799.56;;;22.46;53.35
58056;BME280;53159;55.152;36.614;2022-07-29T09:54:24;99797.44;;;22.62;56.03
58056;BME280;53159;55.152;36.614;2022-07-29T09:56:56;99783.91;;;22.75;52.54
58056;BME280;53159;55.152;36.614;2022-07-29T09:59:26;99780.94;;;22.89;51.59
58056;BME280;53159;55.152;36.614;2022-07-29T10:01:59;99788.63;;;22.99;52.13
58056;BME280;53159;55.152;36.614;2022-07-29T10:04:42;99786.47;;;23.14;51.90
58056;BME280;53159;55.152;36.614;2022-07-29T10:07:09;99785.56;;;23.15;50.67
58056;BME280;53159;55.152;36.614;2022-07-29T10:09:36;99781.06;;;23.20;50.50
58056;BME280;53159;55.152;36.614;2022-07-29T10:12:10;99784.34;;;23.30;49.70
58056;BME280;53159;55.152;36.614;2022-07-29T10:14:42;99780.47;;;23.43;50.67
58056;BME280;53159;55.152;36.614;2022-07-29T10:17:10;99781.25;;;23.47;51.16
58056;BME280;53159;55.152;36.614;2022-07-29T10:19:38;99783.97;;;23.45;50.23
58056;BME280;53159;55.152;36.614;2022-07-29T10:22:07;99782.50;;;23.33;50.35
58056;BME280;53159;55.152;36.614;2022-07-29T10:24:36;99787.66;;;23.38;50.97
58056;BME280;53159;55.152;36.614;2022-07-29T10:27:05;99785.94;;;23.37;50.10
58056;BME280;53159;55.152;36.614;2022-07-29T10:29:36;99791.97;;;23.42;50.60
58056;BME280;53159;55.152;36.614;2022-07-29T10:35:22;99785.22;;;23.63;50.44
58056;BME280;53159;55.152;36.614;2022-07-29T10:44:01;99784.72;;;23.82;51.29
58056;BME280;53159;55.152;36.614;2022-07-29T10:46:37;99785.72;;;23.78;49.83
58056;BME280;53159;55.152;36.614;2022-07-29T10:49:22;99778.44;;;23.86;49.22
58056;BME280;53159;55.152;36.614;2022-07-29T10:52:01;99774.16;;;23.80;50.31
58056;BME280;53159;55.152;36.614;2022-07-29T10:54:48;99767.84;;;23.86;50.40
58056;BME280;53159;55.152;36.614;2022-07-29T10:57:35;99767.09;;;23.81;48.99
58056;BME280;53159;55.152;36.614;2022-07-29T11:00:30;99768.97;;;23.77;49.82
58056;BME280;53159;55.152;36.614;2022-07-29T11:02:57;99783.06;;;23.78;48.77
58056;BME280;53159;55.152;36.614;2022-07-29T11:05:26;99779.03;;;23.64;49.74
58056;BME280;53159;55.152;36.614;2022-07-29T11:10:41;99774.44;;;23.70;49.40
58056;BME280;53159;55.152;36.614;2022-07-29T11:13:08;99775.50;;;23.64;49.13
58056;BME280;53159;55.152;36.614;2022-07-29T11:16:07;99783.34;;;23.67;48.50
58056;BME280;53159;55.152;36.614;2022-07-29T11:18:33;99777.94;;;23.72;49.47
58056;BME280;53159;55.152;36.614;2022-07-29T11:21:01;99784.88;;;23.76;49.70
58056;BME280;53159;55.152;36.614;2022-07-29T11:23:33;99776.94;;;23.76;50.50
58056;BME280;53159;55.152;36.614;2022-07-29T11:39:41;99767.84;;;23.86;47.39
58056;BME280;53159;55.152;36.614;2022-07-29T11:45:03;99780.38;;;23.79;49.94
58056;BME280;53159;55.152;36.614;2022-07-29T11:50:18;99779.72;;;23.71;50.34
58056;BME280;53159;55.152;36.614;2022-07-29T11:52:54;99776.06;;;23.75;50.09
58056;BME280;53159;55.152;36.614;2022-07-29T11:55:23;99782.22;;;23.77;50.50
58056;BME280;53159;55.152;36.614;2022-07-29T11:57:59;99764.59;;;23.75;49.11
58056;BME280;53159;55.152;36.614;2022-07-29T12:03:01;99770.91;;;23.71;49.51
58056;BME280;53159;55.152;36.614;2022-07-29T12:08:15;99761.94;;;23.75;50.02
58056;BME280;53159;55.152;36.614;2022-07-29T12:10:45;99761.13;;;23.73;48.95
58056;BME280;53159;55.152;36.614;2022-07-29T12:13:13;99762.16;;;23.67;49.57
58056;BME280;53159;55.152;36.614;2022-07-29T12:15:41;99764.88;;;23.65;49.10
58056;BME280;53159;55.152;36.614;2022-07-29T12:18:19;99759.63;;;23.62;49.69
58056;BME280;53159;55.152;36.614;2022-07-29T12:20:48;99760.81;;;23.52;47.99
58056;BME280;53159;55.152;36.614;2022-07-29T12:23:15;99761.53;;;23.59;50.68
58056;BME280;53159;55.152;36.614;2022-07-29T12:25:43;99761.53;;;23.59;49.60
58056;BME280;53159;55.152;36.614;2022-07-29T12:28:13;99758.78;;;23.62;51.01
58056;BME280;53159;55.152;36.614;2022-07-29T12:30:45;99760.53;;;23.63;51.30
58056;BME280;53159;55.152;36.614;2022-07-29T12:35:53;99754.34;;;23.62;48.74
58056;BME280;53159;55.152;36.614;2022-07-29T12:38:21;99757.75;;;23.67;49.96
58056;BME280;53159;55.152;36.614;2022-07-29T12:40:51;99748.78;;;23.72;49.36
58056;BME280;53159;55.152;36.614;2022-07-29T12:43:19;99749.69;;;23.71;49.16
58056;BME280;53159;55.152;36.614;2022-07-29T12:45:55;99750.31;;;23.80;51.21
58056;BME280;53159;55.152;36.614;2022-07-29T12:48:36;99751.16;;;23.82;50.89
58056;BME280;53159;55.152;36.614;2022-07-29T12:51:04;99745.19;;;23.74;48.29
58056;BME280;53159;55.152;36.614;2022-07-29T12:53:34;99744.53;;;23.66;49.12
58056;BME280;53159;55.152;36.614;2022-07-29T12:56:01;99740.16;;;23.65;48.74
58056;BME280;53159;55.152;36.614;2022-07-29T13:01:09;99749.88;;;23.64;48.20
58056;BME280;53159;55.152;36.614;2022-07-29T13:03:58;99745.28;;;23.71;49.83
58056;BME280;53159;55.152;36.614;2022-07-29T13:06:39;99746.03;;;23.75;49.05
58056;BME280;53159;55.152;36.614;2022-07-29T13:11:47;99746.81;;;23.78;48.42
58056;BME280;53159;55.152;36.614;2022-07-29T13:14:42;99752.06;;;23.81;49.01
58056;BME280;53159;55.152;36.614;2022-07-29T13:19:46;99743.19;;;23.82;48.04
58056;BME280;53159;55.152;36.614;2022-07-29T13:22:15;99751.78;;;23.91;48.79
58056;BME280;53159;55.152;36.614;2022-07-29T13:24:51;99745.59;;;23.92;47.51
58056;BME280;53159;55.152;36.614;2022-07-29T13:27:22;99750.81;;;23.95;47.51
58056;BME280;53159;55.152;36.614;2022-07-29T13:29:51;99754.28;;;23.97;47.98
58056;BME280;53159;55.152;36.614;2022-07-29T13:32:19;99741.97;;;23.96;46.60
58056;BME280;53159;55.152;36.614;2022-07-29T13:34:50;99751.09;;;23.84;45.46
58056;BME280;53159;55.152;36.614;2022-07-29T13:37:18;99755.38;;;23.88;46.05
58056;BME280;53159;55.152;36.614;2022-07-29T13:39:47;99755.28;;;23.93;46.01
58056;BME280;53159;55.152;36.614;2022-07-29T13:42:16;99755.22;;;23.96;46.40
58056;BME280;53159;55.152;36.614;2022-07-29T13:44:43;99745.59;;;23.92;47.75
58056;BME280;53159;55.152;36.614;2022-07-29T13:47:10;99751.03;;;23.86;46.62
58056;BME280;53159;55.152;36.614;2022-07-29T13:49:37;99750.50;;;23.74;46.37
58056;BME280;53159;55.152;36.614;2022-07-29T13:52:04;99747.59;;;23.83;47.77
58056;BME280;53159;55.152;36.614;2022-07-29T13:54:34;99741.19;;;23.92;48.67
58056;BME280;53159;55.152;36.614;2022-07-29T13:57:16;99743.16;;;23.84;46.37